Time,TemperatureF,DewpointF,PressureIn,WindDirection,WindDirectionDegrees,WindSpeedMPH,WindSpeedGustMPH,Humidity,HourlyPrecipIn,Conditions,Clouds,dailyrainin,SoftwareType,DateUTC
2013-06-08 08:32:00,51.0,51.0,25.95,NW,321,5.0,13.0,99,0.00,,,0.00,,2013-06-08 15:32:00,
2013-06-08 08:42:00,51.0,51.0,25.95,NW,321,5.0,13.0,99,0.00,,,0.00,,2013-06-08 15:42:00,
2013-06-08 08:53:00,51.0,51.0,25.92,NW,318,5.0,14.0,99,0.00,,,0.00,,2013-06-08 15:53:00,
2013-06-08 09:02:00,51.0,51.0,25.92,NW,318,5.0,14.0,99,0.00,,,0.00,,2013-06-08 16:02:00,
2013-06-08 09:12:00,51.0,51.0,25.92,NW,318,5.0,14.0,99,0.00,,,0.00,,2013-06-08 16:12:00,
2013-06-08 09:22:00,52.0,52.0,25.94,NW,316,9.0,17.0,99,0.00,,,0.00,,2013-06-08 16:22:00,
2013-06-08 09:32:00,52.0,51.0,25.93,NW,318,8.0,17.0,95,0.00,,,0.00,,2013-06-08 16:32:00,
2013-06-08 09:42:00,52.0,51.0,25.93,NW,318,8.0,17.0,95,0.00,,,0.00,,2013-06-08 16:42:00,
2013-06-08 09:53:00,53.0,51.0,25.93,NW,312,7.0,23.0,94,0.00,,,0.00,,2013-06-08 16:53:00,
2013-06-08 10:02:00,53.0,50.0,25.88,NW,316,8.0,22.0,90,0.00,,,0.00,,2013-06-08 17:02:00,
2013-06-08 10:12:00,53.0,50.0,25.88,NW,316,8.0,22.0,90,0.00,,,0.00,,2013-06-08 17:12:00,
2013-06-08 10:22:00,55.0,52.0,25.89,NW,321,5.0,18.0,88,0.00,,,0.00,,2013-06-08 17:22:00,
2013-06-08 10:32:00,55.0,51.0,25.94,NW,315,9.0,17.0,85,0.00,,,0.00,,2013-06-08 17:32:00,
2013-06-08 10:42:00,55.0,51.0,25.94,NW,315,9.0,17.0,85,0.00,,,0.00,,2013-06-08 17:42:00,
2013-06-08 10:52:00,56.0,51.0,25.96,NNW,337,7.0,18.0,83,0.00,,,0.00,,2013-06-08 17:52:00,
2013-06-08 11:02:00,56.0,51.0,25.96,NNW,337,7.0,18.0,83,0.00,,,0.00,,2013-06-08 18:02:00,
2013-06-08 11:12:00,56.0,51.0,25.96,NNW,337,7.0,18.0,83,0.00,,,0.00,,2013-06-08 18:12:00,
2013-06-08 11:22:00,56.0,51.0,25.96,NNW,337,7.0,18.0,83,0.00,,,0.00,,2013-06-08 18:22:00,
2013-06-08 11:32:00,59.0,52.0,25.88,NW,315,7.0,18.0,78,0.00,,,0.00,,2013-06-08 18:32:00,
2013-06-08 11:42:00,59.0,52.0,25.88,NW,315,7.0,18.0,78,0.00,,,0.00,,2013-06-08 18:42:00,
2013-06-08 11:52:00,58.0,51.0,25.92,NNW,346,6.0,16.0,78,0.00,,,0.00,,2013-06-08 18:52:00,
2013-06-08 12:02:00,59.0,51.0,25.91,NW,315,5.0,12.0,76,0.00,,,0.00,,2013-06-08 19:02:00,
2013-06-08 12:12:00,59.0,51.0,25.91,NW,315,5.0,12.0,76,0.00,,,0.00,,2013-06-08 19:12:00,
2013-06-08 12:22:00,59.0,51.0,25.91,NW,315,5.0,12.0,76,0.00,,,0.00,,2013-06-08 19:22:00,
2013-06-08 12:32:00,59.0,51.0,25.91,NW,315,5.0,12.0,76,0.00,,,0.00,,2013-06-08 19:32:00,
2013-06-08 12:42:00,59.0,51.0,25.91,NW,315,5.0,12.0,76,0.00,,,0.00,,2013-06-08 19:42:00,
2013-06-08 13:02:00,57.0,51.0,25.91,NW,326,7.0,19.0,79,0.00,,,0.00,,2013-06-08 20:02:00,
2013-06-08 13:12:00,57.0,51.0,25.91,NW,326,7.0,19.0,79,0.00,,,0.00,,2013-06-08 20:12:00,
2013-06-08 13:22:00,57.0,51.0,25.91,NW,326,7.0,19.0,79,0.00,,,0.00,,2013-06-08 20:22:00,
2013-06-08 13:32:00,58.0,51.0,25.93,NW,320,7.0,16.0,77,0.00,,,0.00,,2013-06-08 20:32:00,
2013-06-08 13:42:00,58.0,51.0,25.93,NW,320,7.0,16.0,77,0.00,,,0.00,,2013-06-08 20:42:00,
2013-06-08 13:52:00,57.0,51.0,25.94,NNW,346,6.0,20.0,79,0.00,,,0.00,,2013-06-08 20:52:00,
2013-06-08 14:02:00,57.0,51.0,25.94,NNW,346,6.0,20.0,79,0.00,,,0.00,,2013-06-08 21:02:00,
2013-06-08 14:12:00,57.0,51.0,25.94,NNW,346,6.0,20.0,79,0.00,,,0.00,,2013-06-08 21:12:00,
2013-06-08 14:22:00,57.0,51.0,25.94,NNW,346,6.0,20.0,79,0.00,,,0.00,,2013-06-08 21:22:00,
2013-06-08 14:53:00,57.0,51.0,25.92,NW,316,8.0,22.0,81,0.00,,,0.00,,2013-06-08 21:53:00,
2013-06-08 15:02:00,56.0,51.0,25.92,NW,307,15.0,31.0,82,0.00,,,0.00,,2013-06-08 22:02:00,
2013-06-08 15:12:00,56.0,51.0,25.92,NW,307,15.0,31.0,82,0.00,,,0.00,,2013-06-08 22:12:00,
2013-06-08 15:22:00,56.0,51.0,25.92,NW,307,15.0,31.0,82,0.00,,,0.00,,2013-06-08 22:22:00,
2013-06-08 15:33:00,56.0,51.0,25.89,NW,314,13.0,29.0,84,0.00,,,0.00,,2013-06-08 22:33:00,
2013-06-08 15:42:00,56.0,51.0,25.88,NNW,332,16.0,31.0,84,0.00,,,0.00,,2013-06-08 22:42:00,
2013-06-08 15:52:00,56.0,51.0,25.88,NNW,332,16.0,31.0,84,0.00,,,0.00,,2013-06-08 22:52:00,
2013-06-08 16:02:00,56.0,51.0,25.82,NW,320,10.0,21.0,84,0.00,,,0.00,,2013-06-08 23:02:00,
2013-06-08 16:12:00,56.0,51.0,25.82,NW,320,10.0,21.0,84,0.00,,,0.00,,2013-06-08 23:12:00,
2013-06-08 16:22:00,56.0,51.0,25.82,NW,320,10.0,21.0,84,0.00,,,0.00,,2013-06-08 23:22:00,
2013-06-08 16:32:00,56.0,52.0,25.87,NW,321,13.0,31.0,85,0.00,,,0.00,,2013-06-08 23:32:00,
2013-06-08 16:42:00,56.0,52.0,25.87,NW,321,13.0,31.0,85,0.00,,,0.00,,2013-06-08 23:42:00,
2013-06-08 16:52:00,55.0,51.0,25.92,NW,326,10.0,29.0,86,0.00,,,0.00,,2013-06-08 23:52:00,
2013-06-08 17:02:00,55.0,51.0,25.96,NW,307,10.0,24.0,86,0.00,,,0.00,,2013-06-09 00:02:00,
2013-06-08 17:11:00,55.0,51.0,25.96,NW,307,10.0,24.0,86,0.00,,,0.00,,2013-06-09 00:11:00,
2013-06-08 17:22:00,55.0,51.0,25.95,NW,318,13.0,25.0,86,0.00,,,0.00,,2013-06-09 00:22:00,
2013-06-08 17:32:00,55.0,51.0,25.95,NW,318,13.0,25.0,86,0.00,,,0.00,,2013-06-09 00:32:00,
2013-06-08 17:42:00,55.0,51.0,25.95,NW,318,13.0,25.0,86,0.00,,,0.00,,2013-06-09 00:42:00,
2013-06-08 17:51:00,55.0,51.0,25.95,NW,318,13.0,25.0,86,0.00,,,0.00,,2013-06-09 00:51:00,
2013-06-08 18:02:00,54.0,50.0,25.92,NW,323,11.0,24.0,87,0.00,,,0.00,,2013-06-09 01:02:00,
2013-06-08 18:12:00,54.0,50.0,25.92,NW,323,9.0,23.0,87,0.00,,,0.00,,2013-06-09 01:12:00,
2013-06-08 18:22:00,54.0,50.0,25.92,NW,323,9.0,23.0,87,0.00,,,0.00,,2013-06-09 01:22:00,
2013-06-08 18:32:00,54.0,50.0,25.92,NW,312,14.0,24.0,87,0.00,,,0.00,,2013-06-09 01:32:00,
2013-06-08 18:42:00,54.0,50.0,25.92,NW,312,14.0,24.0,87,0.00,,,0.00,,2013-06-09 01:42:00,
2013-06-08 18:52:00,54.0,50.0,25.91,NW,311,8.0,22.0,87,0.00,,,0.00,,2013-06-09 01:52:00,
2013-06-08 19:02:00,54.0,51.0,25.90,NNW,330,9.0,21.0,88,0.00,,,0.00,,2013-06-09 02:02:00,
2013-06-08 19:11:00,54.0,51.0,25.90,NNW,330,9.0,21.0,88,0.00,,,0.00,,2013-06-09 02:11:00,
2013-06-08 19:22:00,53.0,50.0,25.90,NW,312,10.0,22.0,89,0.00,,,0.00,,2013-06-09 02:22:00,
2013-06-08 19:32:00,53.0,50.0,25.92,NNW,327,8.0,21.0,89,0.00,,,0.00,,2013-06-09 02:32:00,
2013-06-08 19:42:00,53.0,50.0,25.92,NNW,327,8.0,21.0,89,0.00,,,0.00,,2013-06-09 02:42:00,
2013-06-08 19:52:00,53.0,50.0,25.92,NNW,327,8.0,21.0,89,0.00,,,0.00,,2013-06-09 02:52:00,
2013-06-08 20:02:00,53.0,50.0,25.92,NNW,327,8.0,21.0,89,0.00,,,0.00,,2013-06-09 03:02:00,
2013-06-08 20:12:00,53.0,50.0,25.92,NNW,327,8.0,21.0,89,0.00,,,0.00,,2013-06-09 03:12:00,
2013-06-08 20:33:00,52.0,50.0,25.88,NW,322,5.0,18.0,92,0.00,,,0.00,,2013-06-09 03:33:00,
2013-06-08 20:43:00,52.0,50.0,25.88,NW,322,5.0,18.0,92,0.00,,,0.00,,2013-06-09 03:43:00,
2013-06-08 20:53:00,52.0,50.0,25.88,NW,322,5.0,18.0,92,0.00,,,0.00,,2013-06-09 03:53:00,